Terminal Aerodrome Forecast
Issued by NWS

Home | Current Version | Previous Version | Text Only | Print | Product List | Glossary On
Versions: 1 2 3 4 5 6 7 8 9 10 11 12 13 14 15 16 17 18 19 20 21 22 23 24 25 26
000
FTUS42 KMFL 190251 AAA
TAFTMB
TAF AMD
KTMB 190251Z 1903/1924 VRB03KT P6SM SKC
     FM191300 09006KT P6SM SCT035 SCT250 PROB30 1915/1917 TSRA
      BKN030CB
     FM191700 09008KT P6SM SHRA BKN035 PROB30 1917/1923 TSRA
      BKN030CB=

USA.gov is the U.S. government's official web portal to all federal, state and local government web resources and services.